Time;durP1;ratioP1;P1;durP2;ratioP2;P2;SDS_P1;SDS_P2;PMS_P1;PMS_P2;Temp;Humidity;BMP_temperature;BMP_pressure;BME280_temperature;BME280_humidity;BME280_pressure;Samples;Min_cycle;Max_cycle;Signal;HPM_P1;HPM_P2
2021/08/10 00:01:32;;;;;;;1.90;1.80;;;20.60;99.90;;;;;;5048954;28;20202;-71
2021/08/10 00:03:58;;;;;;;2.08;1.88;;;20.60;99.90;;;;;;5048047;28;20220;-71
2021/08/10 00:06:26;;;;;;;1.80;1.70;;;20.60;99.90;;;;;;5047827;28;20218;-71
2021/08/10 00:08:52;;;;;;;1.80;1.70;;;20.60;99.90;;;;;;5046896;28;20210;-71
2021/08/10 00:11:20;;;;;;;1.40;1.40;;;20.50;99.90;;;;;;5048428;28;20194;-71
2021/08/10 00:13:47;;;;;;;1.92;1.83;;;20.60;99.90;;;;;;5047989;28;20692;-71
2021/08/10 00:16:13;;;;;;;1.50;1.40;;;20.60;99.90;;;;;;5048311;28;20437;-71
2021/08/10 00:18:42;;;;;;;1.70;1.60;;;20.60;99.90;;;;;;5047772;28;20198;-71
2021/08/10 00:21:08;;;;;;;1.48;1.42;;;20.60;99.90;;;;;;5048317;28;20242;-71
2021/08/10 00:23:35;;;;;;;1.65;1.55;;;20.60;99.90;;;;;;5045414;28;20286;-72
2021/08/10 00:26:02;;;;;;;1.90;1.80;;;20.60;99.90;;;;;;5047125;28;20288;-71
2021/08/10 00:28:30;;;;;;;1.70;1.60;;;20.70;99.90;;;;;;5048428;28;20716;-72
2021/08/10 00:30:57;;;;;;;1.83;1.73;;;20.60;99.90;;;;;;5046502;28;20292;-71
2021/08/10 00:33:24;;;;;;;2.05;1.92;;;20.60;99.90;;;;;;5046503;28;20205;-71
2021/08/10 00:35:52;;;;;;;4.15;2.15;;;20.60;99.90;;;;;;5046255;28;20236;-71
2021/08/10 00:38:19;;;;;;;2.55;2.00;;;20.60;99.90;;;;;;5045170;28;20205;-71
2021/08/10 00:40:47;;;;;;;4.00;2.03;;;20.60;99.90;;;;;;5045952;28;20198;-72
2021/08/10 00:43:35;;;;;;;2.72;2.53;;;20.60;99.90;;;;;;5046491;28;20255;-71
2021/08/10 00:46:08;;;;;;;2.22;2.10;;;20.60;99.90;;;;;;5034007;28;20709;-72
2021/08/10 00:48:35;;;;;;;2.45;2.25;;;20.60;99.90;;;;;;5045043;28;20695;-71
2021/08/10 00:51:07;;;;;;;2.38;2.17;;;20.60;99.90;;;;;;5046140;28;20205;-71
2021/08/10 00:53:37;;;;;;;1.95;1.85;;;20.50;99.90;;;;;;5031835;28;20202;-70
2021/08/10 00:56:06;;;;;;;2.10;2.00;;;20.50;99.90;;;;;;5047949;28;20186;-71
2021/08/10 00:58:36;;;;;;;2.20;2.10;;;20.50;99.90;;;;;;5050004;28;20292;-71
2021/08/10 01:01:04;;;;;;;2.70;2.50;;;20.40;99.90;;;;;;5052138;28;20193;-71
2021/08/10 01:03:33;;;;;;;3.35;2.97;;;20.40;99.90;;;;;;5050160;28;20198;-71
2021/08/10 01:06:06;;;;;;;2.80;2.55;;;20.30;99.90;;;;;;5049662;28;20226;-71
2021/08/10 01:08:52;;;;;;;2.97;2.70;;;20.20;99.90;;;;;;5048476;28;20268;-71
2021/08/10 01:11:29;;;;;;;3.47;3.00;;;20.10;99.90;;;;;;5049983;28;20263;-72
2021/08/10 01:14:02;;;;;;;3.17;2.95;;;20.10;99.90;;;;;;5049529;28;20296;-71
2021/08/10 01:16:38;;;;;;;3.20;2.90;;;20.00;99.90;;;;;;5047625;28;20213;-71
2021/08/10 01:19:23;;;;;;;2.85;2.70;;;20.00;99.90;;;;;;5049829;28;20205;-71
2021/08/10 01:21:54;;;;;;;3.92;2.92;;;19.80;99.90;;;;;;5044139;28;20238;-71
2021/08/10 01:24:28;;;;;;;3.20;2.88;;;19.80;99.90;;;;;;5060527;28;20321;-71
2021/08/10 01:27:14;;;;;;;3.10;2.90;;;19.70;99.90;;;;;;5049505;28;20233;-71
2021/08/10 01:29:52;;;;;;;2.80;2.60;;;19.60;99.90;;;;;;5049640;28;20202;-71
2021/08/10 01:32:24;;;;;;;3.85;2.50;;;19.60;99.90;;;;;;5066786;28;20213;-71
2021/08/10 01:34:52;;;;;;;2.58;2.40;;;19.50;99.90;;;;;;5049270;28;20255;-71
2021/08/10 01:37:25;;;;;;;2.78;2.58;;;19.50;99.90;;;;;;5048979;28;20194;-71
2021/08/10 01:39:56;;;;;;;3.33;3.03;;;19.40;99.90;;;;;;5047995;28;20241;-71
2021/08/10 01:42:28;;;;;;;3.20;2.60;;;19.30;99.90;;;;;;5049157;28;20696;-72
2021/08/10 01:45:01;;;;;;;2.53;2.42;;;19.30;99.90;;;;;;5049656;28;20201;-71
2021/08/10 01:47:32;;;;;;;3.05;2.30;;;19.20;99.90;;;;;;5048924;28;20467;-71
2021/08/10 01:50:03;;;;;;;2.40;2.30;;;19.20;99.90;;;;;;5049368;28;20218;-71
2021/08/10 01:52:30;;;;;;;2.75;2.55;;;19.20;99.90;;;;;;5047899;28;20556;-71
2021/08/10 01:55:07;;;;;;;3.35;3.05;;;19.20;99.90;;;;;;5035377;28;20733;-71
2021/08/10 01:57:38;;;;;;;2.90;2.70;;;19.10;99.90;;;;;;5065236;28;20220;-71
2021/08/10 02:00:09;;;;;;;2.85;2.65;;;19.10;99.90;;;;;;5049419;28;20237;-72
2021/08/10 02:02:48;;;;;;;2.63;2.42;;;19.00;99.90;;;;;;5050435;28;20212;-70
2021/08/10 02:05:28;;;;;;;3.05;2.55;;;19.00;99.90;;;;;;5045441;28;20243;-72
2021/08/10 02:08:01;;;;;;;2.30;2.00;;;19.00;99.90;;;;;;5041153;28;20259;-71
2021/08/10 02:10:32;;;;;;;2.33;2.13;;;19.00;99.90;;;;;;5048744;28;20209;-71
2021/08/10 02:13:00;;;;;;;2.40;2.20;;;18.90;99.90;;;;;;5049155;28;20270;-72
2021/08/10 02:15:32;;;;;;;2.53;2.33;;;18.90;99.90;;;;;;5043893;28;20201;-71
2021/08/10 02:18:04;;;;;;;2.40;2.22;;;18.90;99.90;;;;;;5048491;28;20235;-71
2021/08/10 02:20:49;;;;;;;2.30;2.10;;;18.90;99.90;;;;;;5049055;28;20300;-71
2021/08/10 02:23:21;;;;;;;2.10;2.00;;;18.90;99.90;;;;;;5047468;28;20201;-71
2021/08/10 02:25:50;;;;;;;2.00;1.90;;;18.90;99.90;;;;;;5046723;28;20289;-71
2021/08/10 02:28:19;;;;;;;2.00;1.90;;;18.80;99.90;;;;;;5047566;28;20225;-71
2021/08/10 02:30:52;;;;;;;1.90;1.77;;;18.80;99.90;;;;;;5048317;28;20229;-70
2021/08/10 02:33:25;;;;;;;2.05;1.95;;;18.80;99.90;;;;;;5048724;28;20201;-70
2021/08/10 02:35:58;;;;;;;1.90;1.80;;;18.80;99.90;;;;;;5048526;28;20519;-70
2021/08/10 02:38:27;;;;;;;2.00;1.90;;;18.80;99.90;;;;;;5047877;28;20717;-71
2021/08/10 02:40:57;;;;;;;1.70;1.60;;;18.80;99.90;;;;;;5047640;28;20315;-71
2021/08/10 02:43:27;;;;;;;2.13;2.03;;;18.80;99.90;;;;;;5048491;28;20643;-71
2021/08/10 02:45:55;;;;;;;2.35;2.15;;;18.80;99.90;;;;;;5044139;28;20298;-71
2021/08/10 02:48:23;;;;;;;3.05;2.10;;;18.80;99.90;;;;;;5045574;28;20266;-69
2021/08/10 02:50:51;;;;;;;2.10;2.00;;;18.80;99.90;;;;;;5045485;28;20539;-71
2021/08/10 02:53:19;;;;;;;1.80;1.70;;;18.80;99.90;;;;;;5063242;28;20284;-70
2021/08/10 02:55:53;;;;;;;2.47;2.10;;;18.80;99.90;;;;;;5048650;28;20227;-70
2021/08/10 02:58:25;;;;;;;2.28;2.17;;;18.80;99.90;;;;;;5047854;28;20546;-70
2021/08/10 03:01:00;;;;;;;2.80;2.50;;;18.80;99.90;;;;;;5048603;28;20247;-71
2021/08/10 03:03:32;;;;;;;2.90;2.70;;;18.70;99.90;;;;;;5047772;28;20209;-71
2021/08/10 03:06:05;;;;;;;2.30;2.10;;;18.70;99.90;;;;;;5047749;28;20297;-70
2021/08/10 03:08:36;;;;;;;1.88;1.77;;;18.70;99.90;;;;;;5045822;28;20553;-70
2021/08/10 03:11:05;;;;;;;2.60;2.40;;;18.80;99.90;;;;;;5047427;28;20432;-70
2021/08/10 03:13:39;;;;;;;2.20;2.00;;;18.70;99.90;;;;;;5047855;28;20208;-70
2021/08/10 03:16:08;;;;;;;2.50;2.30;;;18.70;99.90;;;;;;5042310;28;20204;-70
2021/08/10 03:18:39;;;;;;;2.25;2.15;;;18.70;99.90;;;;;;5047328;28;20296;-71
2021/08/10 03:21:08;;;;;;;2.53;2.05;;;18.70;99.90;;;;;;5047716;28;20601;-71
2021/08/10 03:23:39;;;;;;;2.58;2.38;;;18.70;99.90;;;;;;5046447;28;20209;-71
2021/08/10 03:26:08;;;;;;;2.70;2.15;;;18.70;99.90;;;;;;5047849;28;20653;-70
2021/08/10 03:28:39;;;;;;;1.65;1.65;;;18.70;99.90;;;;;;5043188;28;20233;-69
2021/08/10 03:31:09;;;;;;;2.55;2.10;;;18.80;99.90;;;;;;5047260;28;20201;-69
2021/08/10 03:33:38;;;;;;;1.90;1.80;;;18.80;99.90;;;;;;5047603;28;20547;-69
2021/08/10 03:36:06;;;;;;;1.83;1.73;;;18.80;99.90;;;;;;5046461;28;20202;-69
2021/08/10 03:38:35;;;;;;;1.77;1.60;;;18.80;99.90;;;;;;5045500;28;20209;-69
2021/08/10 03:41:05;;;;;;;2.03;1.80;;;18.80;99.90;;;;;;5045971;28;20307;-69
2021/08/10 03:43:35;;;;;;;1.70;1.60;;;18.80;99.90;;;;;;5047173;28;20205;-69
2021/08/10 03:46:03;;;;;;;1.55;1.48;;;18.90;99.90;;;;;;5047219;28;20229;-70
2021/08/10 03:48:38;;;;;;;1.65;1.55;;;18.90;99.90;;;;;;5046426;28;20201;-70
2021/08/10 03:51:07;;;;;;;2.22;1.80;;;18.90;99.90;;;;;;5046467;28;20206;-70
2021/08/10 03:53:35;;;;;;;1.67;1.58;;;18.90;99.90;;;;;;5031994;28;20197;-70
2021/08/10 03:56:03;;;;;;;1.67;1.58;;;19.00;99.90;;;;;;5046335;28;20296;-70
2021/08/10 03:58:38;;;;;;;1.30;1.30;;;19.00;99.90;;;;;;5046380;28;20204;-70
2021/08/10 04:01:07;;;;;;;3.60;2.15;;;19.10;99.90;;;;;;5047497;28;20294;-71
2021/08/10 04:03:36;;;;;;;1.52;1.50;;;19.10;99.90;;;;;;5046616;28;20205;-70
2021/08/10 04:06:07;;;;;;;1.88;1.70;;;19.10;99.90;;;;;;5063513;28;20220;-70
2021/08/10 04:08:35;;;;;;;2.80;2.13;;;19.10;99.90;;;;;;5044757;28;20221;-70
2021/08/10 04:11:02;;;;;;;2.60;2.40;;;19.10;99.90;;;;;;5046351;28;20209;-70
2021/08/10 04:13:32;;;;;;;2.80;2.60;;;19.10;99.90;;;;;;5046956;28;20197;-69
2021/08/10 04:16:02;;;;;;;2.70;2.42;;;19.10;99.90;;;;;;5046431;28;20678;-70
2021/08/10 04:18:30;;;;;;;2.97;2.50;;;19.10;99.90;;;;;;5046220;28;20205;-70
2021/08/10 04:20:57;;;;;;;2.10;2.00;;;19.10;99.90;;;;;;5046866;28;20230;-70
2021/08/10 04:23:25;;;;;;;2.22;2.05;;;19.10;99.90;;;;;;5045587;28;20217;-70
2021/08/10 04:25:53;;;;;;;2.40;2.20;;;19.10;99.90;;;;;;5046390;28;20591;-70
2021/08/10 04:28:20;;;;;;;2.50;2.40;;;19.10;99.90;;;;;;5046595;28;20653;-71
2021/08/10 04:30:47;;;;;;;2.00;1.90;;;19.10;99.90;;;;;;5048855;28;20255;-71
2021/08/10 04:33:16;;;;;;;3.13;2.00;;;19.10;99.90;;;;;;5051075;28;20690;-69
2021/08/10 04:35:43;;;;;;;1.95;1.85;;;19.20;99.90;;;;;;5050765;28;20688;-70
2021/08/10 04:38:10;;;;;;;1.80;1.70;;;19.30;99.90;;;;;;5048395;28;20237;-70
2021/08/10 04:40:40;;;;;;;1.98;1.88;;;19.30;99.90;;;;;;5050067;28;20229;-70
2021/08/10 04:43:10;;;;;;;2.03;1.88;;;19.40;99.90;;;;;;5051866;28;20210;-70
2021/08/10 04:45:41;;;;;;;1.85;1.75;;;19.40;99.90;;;;;;5037364;28;20210;-70
2021/08/10 04:48:08;;;;;;;2.40;2.03;;;19.40;99.90;;;;;;5041447;28;20234;-71
2021/08/10 04:50:37;;;;;;;2.75;2.20;;;19.50;99.90;;;;;;5049473;28;20197;-71
2021/08/10 04:53:06;;;;;;;1.90;1.80;;;19.50;99.90;;;;;;5066061;28;20247;-70
2021/08/10 04:55:33;;;;;;;2.17;1.90;;;19.50;99.90;;;;;;5050201;28;20208;-71
2021/08/10 04:58:02;;;;;;;1.90;1.80;;;19.50;99.90;;;;;;5049404;28;20206;-69
2021/08/10 05:00:31;;;;;;;3.05;2.00;;;19.50;99.90;;;;;;5053265;28;20210;-72
2021/08/10 05:02:59;;;;;;;2.15;1.83;;;19.50;99.90;;;;;;5049922;28;20186;-69
2021/08/10 05:05:26;;;;;;;3.85;1.98;;;19.60;99.90;;;;;;5050639;28;20650;-70
2021/08/10 05:07:56;;;;;;;1.88;1.77;;;19.60;99.90;;;;;;5047807;28;20230;-69
2021/08/10 05:10:24;;;;;;;1.90;1.80;;;19.60;99.90;;;;;;5049100;28;20565;-69
2021/08/10 05:12:52;;;;;;;3.10;1.90;;;19.60;99.90;;;;;;5050288;28;20217;-69
2021/08/10 05:15:24;;;;;;;2.20;2.10;;;19.60;99.90;;;;;;5050219;28;20212;-70
2021/08/10 05:17:51;;;;;;;2.50;2.30;;;19.60;99.90;;;;;;5047866;28;20236;-69
2021/08/10 05:20:22;;;;;;;2.17;2.08;;;19.50;99.90;;;;;;5049827;28;20225;-70
2021/08/10 05:22:49;;;;;;;2.10;1.90;;;19.50;99.90;;;;;;5048084;28;20716;-69
2021/08/10 05:25:16;;;;;;;2.08;1.98;;;19.50;99.90;;;;;;5049600;28;20220;-69
2021/08/10 05:27:43;;;;;;;1.90;1.80;;;19.60;99.90;;;;;;5049090;28;20268;-69
2021/08/10 05:30:11;;;;;;;2.03;1.92;;;19.60;99.90;;;;;;5048940;28;20665;-69
2021/08/10 05:32:40;;;;;;;1.67;1.58;;;19.60;99.90;;;;;;5049602;28;20194;-69
2021/08/10 05:35:08;;;;;;;1.58;1.48;;;19.60;99.90;;;;;;5051704;28;20209;-69
2021/08/10 05:37:38;;;;;;;1.45;1.45;;;19.70;99.90;;;;;;5049207;28;20216;-69
2021/08/10 05:40:07;;;;;;;1.92;1.75;;;19.70;99.90;;;;;;5048897;28;20206;-69
2021/08/10 05:42:34;;;;;;;2.22;2.03;;;19.70;99.90;;;;;;5048111;28;20252;-69
2021/08/10 05:45:05;;;;;;;2.13;1.90;;;19.70;99.90;;;;;;5036076;28;20209;-70
2021/08/10 05:47:32;;;;;;;1.83;1.73;;;19.80;99.90;;;;;;5048919;28;20332;-70
2021/08/10 05:50:01;;;;;;;1.73;1.63;;;19.90;99.90;;;;;;5050129;28;20193;-70
2021/08/10 05:52:32;;;;;;;2.00;1.73;;;20.20;99.90;;;;;;5061767;28;20295;-70
2021/08/10 05:54:59;;;;;;;2.95;1.90;;;20.40;99.90;;;;;;5043208;28;20673;-70
2021/08/10 05:57:27;;;;;;;1.92;1.83;;;20.60;99.90;;;;;;5049014;28;20259;-70
2021/08/10 05:59:56;;;;;;;2.00;1.80;;;20.60;99.90;;;;;;5048726;28;20261;-69
2021/08/10 06:02:24;;;;;;;6.57;1.75;;;20.70;99.90;;;;;;5051041;28;20193;-69
2021/08/10 06:04:52;;;;;;;2.17;1.90;;;20.80;99.90;;;;;;5049457;28;20194;-70
2021/08/10 06:07:23;;;;;;;2.50;2.30;;;20.80;99.90;;;;;;5040960;28;20344;-70
2021/08/10 06:09:50;;;;;;;3.50;2.10;;;20.70;99.90;;;;;;5045372;28;20201;-68
2021/08/10 06:12:17;;;;;;;3.50;1.70;;;20.70;99.90;;;;;;5040269;28;20190;-68
2021/08/10 06:14:44;;;;;;;4.75;2.83;;;20.60;99.90;;;;;;5036645;28;20202;-67
2021/08/10 06:17:12;;;;;;;2.83;2.50;;;20.60;99.90;;;;;;5041248;28;20402;-68
2021/08/10 06:19:41;;;;;;;2.13;1.95;;;20.50;99.90;;;;;;5044663;28;20712;-67
2021/08/10 06:22:09;;;;;;;2.00;1.90;;;20.50;99.90;;;;;;5057353;28;20606;-69
2021/08/10 06:24:38;;;;;;;1.73;1.63;;;20.50;99.90;;;;;;5052083;28;20222;-68
2021/08/10 06:27:05;;;;;;;1.83;1.73;;;20.80;99.90;;;;;;5043444;28;20316;-68
2021/08/10 06:29:32;;;;;;;1.70;1.60;;;21.20;99.90;;;;;;5039000;28;20518;-68
2021/08/10 06:32:05;;;;;;;3.40;2.30;;;22.00;99.90;;;;;;5039895;28;20206;-68
2021/08/10 06:34:34;;;;;;;1.73;1.60;;;24.30;99.90;;;;;;5057850;28;20198;-68
2021/08/10 06:37:01;;;;;;;3.42;1.80;;;26.70;99.90;;;;;;5042804;28;20198;-68
2021/08/10 06:39:34;;;;;;;10.10;2.03;;;27.70;99.50;;;;;;5040223;28;20190;-68
2021/08/10 06:42:03;;;;;;;2.92;1.77;;;27.80;97.80;;;;;;5043368;28;20213;-68
2021/08/10 06:44:33;;;;;;;2.22;1.88;;;28.40;96.80;;;;;;5035766;28;20198;-68
2021/08/10 06:47:01;;;;;;;1.98;1.85;;;29.80;94.50;;;;;;5059048;28;20240;-68
2021/08/10 06:49:30;;;;;;;1.73;1.63;;;31.60;90.80;;;;;;5039715;28;20194;-69
2021/08/10 06:51:58;;;;;;;1.60;1.50;;;33.10;83.80;;;;;;5041164;28;20498;-68
2021/08/10 06:54:25;;;;;;;1.88;1.60;;;34.20;77.00;;;;;;5041433;28;20637;-69
2021/08/10 06:56:55;;;;;;;2.50;1.65;;;35.30;71.20;;;;;;5044619;28;20208;-70
2021/08/10 06:59:26;;;;;;;1.95;1.85;;;36.90;65.30;;;;;;5058935;28;20204;-68
2021/08/10 07:01:56;;;;;;;2.80;1.80;;;37.90;57.90;;;;;;5039415;28;20209;-69
2021/08/10 07:04:23;;;;;;;1.67;1.58;;;39.10;55.00;;;;;;5044411;28;20198;-70
2021/08/10 07:06:50;;;;;;;1.83;1.60;;;40.10;52.80;;;;;;5044495;28;20202;-70
2021/08/10 07:09:17;;;;;;;2.03;1.92;;;40.80;50.50;;;;;;5037886;28;20630;-70
2021/08/10 07:11:48;;;;;;;1.80;1.70;;;41.60;48.20;;;;;;5038532;28;20223;-70
2021/08/10 07:14:15;;;;;;;2.85;2.10;;;42.80;45.90;;;;;;5043141;28;20280;-70
2021/08/10 07:16:47;;;;;;;2.35;2.25;;;43.80;43.10;;;;;;5040742;28;20561;-70
2021/08/10 07:19:14;;;;;;;2.42;2.20;;;44.90;40.50;;;;;;5039259;28;20283;-69
2021/08/10 07:21:43;;;;;;;2.63;2.42;;;45.60;38.80;;;;;;5040800;28;20291;-71
2021/08/10 07:24:19;;;;;;;2.65;2.20;;;45.90;37.30;;;;;;5043433;28;20209;-69
2021/08/10 07:26:47;;;;;;;2.30;2.20;;;45.60;36.70;;;;;;5043547;28;20210;-69
2021/08/10 07:29:14;;;;;;;2.40;2.20;;;45.00;36.80;;;;;;5039249;28;20209;-69
2021/08/10 07:31:41;;;;;;;2.20;2.10;;;43.90;37.60;;;;;;5042225;28;20567;-69
2021/08/10 07:34:15;;;;;;;2.45;2.25;;;43.00;37.60;;;;;;5040122;28;20367;-70
2021/08/10 07:36:44;;;;;;;2.17;2.08;;;42.30;37.80;;;;;;5044509;28;20547;-71
2021/08/10 07:39:11;;;;;;;2.47;2.20;;;41.30;38.60;;;;;;5038672;28;20212;-70
2021/08/10 07:41:39;;;;;;;2.17;2.05;;;40.10;39.00;;;;;;5038285;28;20205;-69
2021/08/10 07:44:08;;;;;;;2.42;2.22;;;39.10;40.10;;;;;;5044444;28;20641;-70
2021/08/10 07:46:41;;;;;;;2.00;1.90;;;38.30;40.80;;;;;;5043047;28;20201;-70
2021/08/10 07:49:11;;;;;;;1.98;1.88;;;37.60;41.30;;;;;;5042302;28;20573;-70
2021/08/10 07:51:40;;;;;;;1.80;1.70;;;37.10;41.80;;;;;;5043019;28;20205;-70
2021/08/10 07:54:07;;;;;;;2.50;2.10;;;36.80;42.30;;;;;;5035724;28;20194;-69
2021/08/10 07:56:34;;;;;;;1.83;1.73;;;36.60;42.50;;;;;;5054164;28;20289;-70
2021/08/10 07:59:00;;;;;;;2.08;1.98;;;36.00;42.70;;;;;;5036788;28;20221;-69
2021/08/10 08:01:28;;;;;;;1.95;1.67;;;35.50;43.40;;;;;;5041586;28;20702;-70
2021/08/10 08:03:55;;;;;;;1.88;1.80;;;35.10;43.90;;;;;;5041156;28;20228;-70
2021/08/10 08:06:22;;;;;;;2.22;2.13;;;35.10;44.10;;;;;;5039913;28;20288;-70
2021/08/10 08:08:51;;;;;;;1.73;1.63;;;35.20;44.10;;;;;;5043360;28;20312;-70
2021/08/10 08:11:23;;;;;;;2.00;1.90;;;35.00;44.40;;;;;;5042177;28;20263;-70
2021/08/10 08:13:51;;;;;;;4.05;1.92;;;34.70;44.70;;;;;;5042743;28;20531;-71
2021/08/10 08:16:21;;;;;;;3.65;1.60;;;34.60;45.00;;;;;;5044006;28;20208;-70
2021/08/10 08:18:48;;;;;;;2.25;2.05;;;34.50;45.20;;;;;;5037438;28;20577;-71
2021/08/10 08:21:20;;;;;;;1.70;1.70;;;34.60;45.40;;;;;;5043340;28;20581;-71
2021/08/10 08:23:53;;;;;;;2.53;1.75;;;36.10;44.60;;;;;;5045329;28;20597;-71
2021/08/10 08:26:22;;;;;;;1.98;1.80;;;38.30;42.30;;;;;;5057209;28;20479;-71
2021/08/10 08:28:50;;;;;;;2.30;2.20;;;40.30;39.90;;;;;;5039130;28;20223;-71
2021/08/10 08:31:17;;;;;;;1.98;1.88;;;42.10;37.40;;;;;;5059335;28;20205;-71
2021/08/10 08:33:46;;;;;;;3.10;2.00;;;43.30;35.80;;;;;;5042255;28;20208;-71
2021/08/10 08:36:13;;;;;;;2.20;2.00;;;44.20;34.50;;;;;;5055024;28;20194;-70
2021/08/10 08:38:41;;;;;;;2.40;2.20;;;44.90;33.10;;;;;;5039698;28;20193;-70
2021/08/10 08:41:11;;;;;;;3.03;2.10;;;45.70;31.80;;;;;;5040345;28;20209;-71
2021/08/10 08:43:39;;;;;;;2.28;2.17;;;46.40;30.00;;;;;;5038949;28;20201;-71
2021/08/10 08:46:07;;;;;;;2.20;2.10;;;46.80;29.00;;;;;;5041057;28;20205;-70
2021/08/10 08:48:38;;;;;;;2.92;2.17;;;47.10;28.70;;;;;;5040913;28;20799;-70
2021/08/10 08:51:10;;;;;;;2.28;2.17;;;47.40;28.10;;;;;;5041200;28;20627;-71
2021/08/10 08:53:44;;;;;;;2.33;2.13;;;48.00;27.50;;;;;;5041346;28;20201;-72
2021/08/10 08:56:13;;;;;;;2.28;2.17;;;48.70;26.90;;;;;;5041191;28;20935;-72
2021/08/10 08:58:40;;;;;;;2.40;2.20;;;49.10;26.60;;;;;;5037312;28;20196;-72
2021/08/10 09:01:08;;;;;;;2.55;2.03;;;48.90;26.70;;;;;;5040319;28;20238;-72
2021/08/10 09:03:35;;;;;;;1.92;1.90;;;48.30;27.60;;;;;;5041827;28;20612;-72
2021/08/10 09:06:03;;;;;;;2.88;2.63;;;47.50;27.60;;;;;;5059591;28;20216;-72
2021/08/10 09:08:33;;;;;;;1.67;1.67;;;47.10;27.30;;;;;;5056404;28;20221;-72
2021/08/10 09:11:07;;;;;;;2.17;2.08;;;46.90;27.40;;;;;;5038825;28;20201;-71
2021/08/10 09:13:40;;;;;;;1.88;1.88;;;46.90;27.40;;;;;;5042090;28;20444;-72
2021/08/10 09:16:09;;;;;;;2.00;2.00;;;46.50;27.20;;;;;;5041102;28;20225;-72
2021/08/10 09:18:38;;;;;;;1.83;1.77;;;45.70;27.70;;;;;;5043515;28;20193;-72
2021/08/10 09:21:16;;;;;;;2.00;2.00;;;44.90;27.80;;;;;;5045297;28;20243;-72
2021/08/10 09:23:51;;;;;;;1.65;1.65;;;44.30;28.00;;;;;;5040331;28;20213;-73
2021/08/10 09:26:23;;;;;;;1.65;1.58;;;43.70;28.10;;;;;;5044124;28;20197;-73
2021/08/10 09:28:59;;;;;;;1.98;1.88;;;43.30;28.50;;;;;;5038157;28;20930;-73
2021/08/10 09:31:31;;;;;;;1.92;1.83;;;43.20;28.80;;;;;;5034620;28;20216;-73
2021/08/10 09:34:00;;;;;;;1.92;1.83;;;43.50;28.50;;;;;;5045127;28;20243;-73
2021/08/10 09:36:28;;;;;;;1.95;1.85;;;43.70;28.10;;;;;;5041691;28;20199;-73
2021/08/10 09:38:57;;;;;;;1.73;1.63;;;43.30;28.30;;;;;;5043857;28;20197;-73
2021/08/10 09:41:25;;;;;;;2.00;1.90;;;43.40;28.50;;;;;;5059519;28;20259;-72
2021/08/10 09:44:10;;;;;;;1.83;1.73;;;43.80;28.00;;;;;;5045266;28;20209;-75
2021/08/10 09:46:38;;;;;;;2.00;1.90;;;44.40;27.20;;;;;;5062764;28;20811;-74
2021/08/10 09:49:07;;;;;;;2.10;2.10;;;45.00;26.50;;;;;;5043595;28;20620;-74
2021/08/10 09:51:40;;;;;;;2.03;1.92;;;45.80;26.40;;;;;;5048606;28;20543;-75
2021/08/10 09:54:10;;;;;;;2.20;2.10;;;46.50;26.40;;;;;;5052981;28;20319;-74
2021/08/10 09:56:40;;;;;;;2.10;2.08;;;46.90;26.30;;;;;;5061437;28;20205;-74
2021/08/10 09:59:08;;;;;;;1.88;1.88;;;47.20;26.00;;;;;;5045035;28;20391;-75
2021/08/10 10:01:37;;;;;;;1.90;1.90;;;47.20;26.00;;;;;;5062664;28;20197;-74
2021/08/10 10:04:19;;;;;;;2.00;2.00;;;47.60;25.80;;;;;;5060471;28;20198;-75
2021/08/10 10:06:55;;;;;;;2.35;2.25;;;47.90;25.70;;;;;;5045584;28;20279;-74
2021/08/10 10:09:23;;;;;;;2.80;2.13;;;48.10;25.00;;;;;;5057522;28;20217;-74
2021/08/10 10:11:52;;;;;;;2.20;2.10;;;48.30;25.20;;;;;;5044450;28;20193;-74
2021/08/10 10:14:26;;;;;;;2.15;2.13;;;48.30;25.00;;;;;;5061781;28;20193;-74
2021/08/10 10:16:54;;;;;;;1.95;1.85;;;48.20;25.10;;;;;;5044318;28;20284;-74
2021/08/10 10:19:22;;;;;;;2.30;2.20;;;48.30;25.20;;;;;;5045990;28;20223;-75
2021/08/10 10:21:51;;;;;;;2.30;2.20;;;48.30;24.70;;;;;;5042315;28;20783;-74
2021/08/10 10:24:21;;;;;;;1.95;1.85;;;47.90;24.90;;;;;;5043787;28;20704;-73
2021/08/10 10:26:49;;;;;;;2.13;2.03;;;46.40;25.40;;;;;;5041337;28;20701;-74
2021/08/10 10:29:17;;;;;;;2.35;2.25;;;44.50;26.30;;;;;;5045315;28;20640;-74
2021/08/10 10:31:46;;;;;;;2.08;1.98;;;43.20;26.90;;;;;;5046577;28;20375;-74
2021/08/10 10:34:14;;;;;;;2.00;2.00;;;42.90;27.20;;;;;;5046029;28;20185;-74
2021/08/10 10:36:43;;;;;;;1.80;1.70;;;42.90;27.30;;;;;;5045709;28;20193;-74
2021/08/10 10:39:12;;;;;;;2.00;1.90;;;42.10;27.60;;;;;;5044102;28;20229;-73
2021/08/10 10:41:40;;;;;;;2.00;2.00;;;41.00;28.40;;;;;;5045000;28;20216;-73
2021/08/10 10:44:08;;;;;;;1.90;1.80;;;40.20;28.80;;;;;;5044748;28;20435;-74
2021/08/10 10:46:37;;;;;;;1.88;1.80;;;39.90;28.90;;;;;;5061588;28;20232;-75
2021/08/10 10:49:06;;;;;;;1.85;1.75;;;40.00;29.20;;;;;;5044731;28;20196;-76
2021/08/10 10:51:34;;;;;;;1.75;1.75;;;41.00;28.50;;;;;;5040746;28;20703;-78
2021/08/10 10:54:28;;;;;;;2.05;1.95;;;42.10;27.90;;;;;;5044242;28;20297;-79
2021/08/10 10:56:57;;;;;;;2.00;1.90;;;41.90;27.60;;;;;;4962194;28;20216;-78
2021/08/10 10:59:35;;;;;;;1.60;1.60;;;41.10;27.90;;;;;;4963191;28;20232;-78
2021/08/10 11:02:13;;;;;;;2.08;1.98;;;40.70;28.40;;;;;;4963075;28;20271;-78
2021/08/10 11:05:21;;;;;;;1.70;1.70;;;40.80;28.30;;;;;;4963930;28;20204;-78
2021/08/10 11:07:50;;;;;;;1.73;1.63;;;40.70;28.20;;;;;;4959888;28;20865;-76
2021/08/10 11:10:43;;;;;;;1.70;1.70;;;40.10;28.50;;;;;;4944482;28;20196;-80
2021/08/10 11:13:37;;;;;;;2.10;2.00;;;39.70;28.80;;;;;;4961282;28;20264;-79
2021/08/10 11:16:10;;;;;;;1.80;1.70;;;39.40;29.10;;;;;;4947980;28;20230;-78
2021/08/10 11:18:37;;;;;;;1.75;1.65;;;39.10;29.30;;;;;;4963297;28;20227;-79
2021/08/10 11:21:25;;;;;;;1.70;1.60;;;38.40;29.40;;;;;;4967807;28;20216;-78
2021/08/10 11:23:52;;;;;;;1.55;1.55;;;37.70;29.90;;;;;;4956061;28;20208;-79
2021/08/10 11:26:52;;;;;;;1.85;1.75;;;37.00;30.20;;;;;;4964332;28;20211;-78
2021/08/10 11:29:41;;;;;;;1.58;1.58;;;36.30;30.70;;;;;;4874080;29;20202;-75
2021/08/10 11:32:35;;;;;;;1.38;1.30;;;35.60;31.40;;;;;;4880300;29;20298;-75
2021/08/10 11:35:23;;;;;;;1.10;1.10;;;35.10;32.30;;;;;;4976536;28;20289;-76
2021/08/10 11:38:11;;;;;;;1.55;1.52;;;34.60;32.80;;;;;;4961441;28;20203;-76
2021/08/10 11:40:59;;;;;;;1.30;1.30;;;34.20;33.30;;;;;;4964376;28;20691;-76
2021/08/10 11:43:36;;;;;;;1.50;1.50;;;33.80;33.70;;;;;;4981168;28;20211;-75
2021/08/10 11:46:05;;;;;;;1.40;1.30;;;33.50;34.20;;;;;;4976192;28;20636;-76
2021/08/10 11:48:47;;;;;;;2.15;1.15;;;33.30;34.60;;;;;;4965517;28;20239;-74
2021/08/10 11:51:21;;;;;;;1.50;1.40;;;33.20;35.00;;;;;;4963108;28;20218;-75
2021/08/10 11:53:51;;;;;;;1.20;1.20;;;33.10;35.30;;;;;;4964617;28;20207;-76
2021/08/10 11:56:23;;;;;;;1.40;1.40;;;33.10;35.40;;;;;;4982376;28;20202;-76
2021/08/10 11:58:50;;;;;;;1.98;1.40;;;33.10;35.60;;;;;;4981524;28;20235;-76
2021/08/10 12:01:17;;;;;;;1.48;1.48;;;33.10;35.70;;;;;;5038846;28;20214;-75
2021/08/10 12:03:44;;;;;;;1.67;1.58;;;33.10;35.60;;;;;;5044329;28;20197;-76
2021/08/10 12:06:12;;;;;;;1.38;1.30;;;33.10;35.50;;;;;;5043074;28;20744;-76
2021/08/10 12:08:39;;;;;;;1.33;1.25;;;33.20;35.70;;;;;;5041763;28;20200;-75
2021/08/10 12:11:07;;;;;;;1.23;1.23;;;33.60;35.60;;;;;;5041173;28;20232;-77
2021/08/10 12:13:34;;;;;;;1.40;1.30;;;33.80;35.40;;;;;;5043994;28;20301;-76
2021/08/10 12:16:07;;;;;;;1.20;1.20;;;33.60;35.30;;;;;;5043605;28;20198;-75
2021/08/10 12:18:33;;;;;;;1.30;1.20;;;33.50;35.40;;;;;;5042944;28;20684;-75
2021/08/10 12:21:03;;;;;;;1.27;1.27;;;33.50;35.90;;;;;;5041544;28;20623;-77
2021/08/10 12:23:39;;;;;;;1.58;1.48;;;33.40;35.20;;;;;;5040670;28;20201;-76
2021/08/10 12:26:16;;;;;;;1.70;1.60;;;33.20;34.90;;;;;;5057699;28;20267;-73
2021/08/10 12:29:00;;;;;;;1.58;1.48;;;33.10;35.40;;;;;;5037879;28;20205;-72
2021/08/10 12:31:27;;;;;;;1.10;1.10;;;32.90;35.50;;;;;;5038814;28;20573;-73
2021/08/10 12:33:56;;;;;;;1.40;1.40;;;32.80;35.70;;;;;;5043063;28;20198;-74
2021/08/10 12:36:23;;;;;;;1.73;1.63;;;32.70;35.50;;;;;;5042404;28;20714;-75
2021/08/10 12:38:51;;;;;;;1.83;1.50;;;32.50;35.40;;;;;;5043048;28;20213;-73
2021/08/10 12:41:22;;;;;;;2.00;1.90;;;32.40;36.20;;;;;;5043251;28;20570;-73
2021/08/10 12:43:50;;;;;;;1.20;1.10;;;32.30;35.80;;;;;;5033609;28;20585;-72
2021/08/10 12:46:29;;;;;;;1.20;1.20;;;32.20;36.10;;;;;;5038262;28;20206;-73
2021/08/10 12:49:04;;;;;;;1.30;1.20;;;32.20;36.00;;;;;;5041487;28;20197;-73
2021/08/10 12:51:53;;;;;;;1.23;1.23;;;32.10;36.10;;;;;;5043937;28;20692;-74
2021/08/10 12:54:20;;;;;;;0.98;0.98;;;31.90;36.30;;;;;;5046250;28;20213;-73
2021/08/10 12:56:49;;;;;;;1.10;1.10;;;31.80;36.60;;;;;;5062423;28;20194;-74
2021/08/10 12:59:16;;;;;;;1.27;1.27;;;31.80;36.60;;;;;;5045569;28;20617;-73
2021/08/10 13:01:45;;;;;;;1.50;1.40;;;31.80;36.30;;;;;;5040038;28;21287;-73
2021/08/10 13:04:13;;;;;;;1.25;1.25;;;31.70;36.40;;;;;;5046736;28;20202;-73
2021/08/10 13:06:41;;;;;;;1.05;1.05;;;31.60;36.80;;;;;;5044680;28;20226;-74